sensor_id;sensor_type;location;lat;lon;timestamp;P1;durP1;ratioP1;P2;durP2;ratioP2
19733;SDS011;10018;51.230;7.860;2022-12-18T00:02:12;48.20;;;20.97;;
19733;SDS011;10018;51.230;7.860;2022-12-18T00:04:38;39.87;;;19.93;;
19733;SDS011;10018;51.230;7.860;2022-12-18T00:07:03;45.50;;;20.57;;
19733;SDS011;10018;51.230;7.860;2022-12-18T00:09:29;43.27;;;20.53;;
19733;SDS011;10018;51.230;7.860;2022-12-18T00:11:54;49.17;;;21.03;;
19733;SDS011;10018;51.230;7.860;2022-12-18T00:14:21;47.50;;;20.93;;
19733;SDS011;10018;51.230;7.860;2022-12-18T00:16:47;42.87;;;19.07;;
19733;SDS011;10018;51.230;7.860;2022-12-18T00:19:13;43.37;;;20.60;;
19733;SDS011;10018;51.230;7.860;2022-12-18T00:21:39;40.37;;;18.47;;
19733;SDS011;10018;51.230;7.860;2022-12-18T00:24:05;36.67;;;17.80;;
19733;SDS011;10018;51.230;7.860;2022-12-18T00:26:31;38.37;;;17.63;;
19733;SDS011;10018;51.230;7.860;2022-12-18T00:28:58;42.13;;;19.37;;
19733;SDS011;10018;51.230;7.860;2022-12-18T00:31:26;41.67;;;18.83;;
19733;SDS011;10018;51.230;7.860;2022-12-18T00:33:53;36.67;;;17.90;;
19733;SDS011;10018;51.230;7.860;2022-12-18T00:36:21;38.73;;;18.67;;
19733;SDS011;10018;51.230;7.860;2022-12-18T00:38:48;40.13;;;18.97;;
19733;SDS011;10018;51.230;7.860;2022-12-18T00:41:14;40.20;;;19.10;;
19733;SDS011;10018;51.230;7.860;2022-12-18T00:44:01;42.53;;;19.10;;
19733;SDS011;10018;51.230;7.860;2022-12-18T00:46:28;41.83;;;20.13;;
19733;SDS011;10018;51.230;7.860;2022-12-18T00:48:53;44.40;;;20.40;;
19733;SDS011;10018;51.230;7.860;2022-12-18T00:51:19;42.23;;;18.93;;
19733;SDS011;10018;51.230;7.860;2022-12-18T00:53:44;41.07;;;18.87;;
19733;SDS011;10018;51.230;7.860;2022-12-18T00:56:10;39.63;;;19.73;;
19733;SDS011;10018;51.230;7.860;2022-12-18T00:58:35;41.27;;;18.33;;
19733;SDS011;10018;51.230;7.860;2022-12-18T01:01:01;40.57;;;19.63;;
19733;SDS011;10018;51.230;7.860;2022-12-18T01:03:28;40.40;;;18.17;;
19733;SDS011;10018;51.230;7.860;2022-12-18T01:05:53;40.70;;;17.80;;
19733;SDS011;10018;51.230;7.860;2022-12-18T01:08:19;44.10;;;19.03;;
19733;SDS011;10018;51.230;7.860;2022-12-18T01:10:44;33.70;;;17.20;;
19733;SDS011;10018;51.230;7.860;2022-12-18T01:13:10;40.03;;;19.50;;
19733;SDS011;10018;51.230;7.860;2022-12-18T01:15:35;38.53;;;19.13;;
19733;SDS011;10018;51.230;7.860;2022-12-18T01:18:01;40.67;;;19.00;;
19733;SDS011;10018;51.230;7.860;2022-12-18T01:20:26;38.97;;;17.87;;
19733;SDS011;10018;51.230;7.860;2022-12-18T01:22:52;34.77;;;17.60;;
19733;SDS011;10018;51.230;7.860;2022-12-18T01:25:18;35.43;;;17.23;;
19733;SDS011;10018;51.230;7.860;2022-12-18T01:27:43;36.50;;;18.47;;
19733;SDS011;10018;51.230;7.860;2022-12-18T01:30:09;38.00;;;17.30;;
19733;SDS011;10018;51.230;7.860;2022-12-18T01:32:35;40.20;;;19.07;;
19733;SDS011;10018;51.230;7.860;2022-12-18T01:35:00;40.00;;;18.97;;
19733;SDS011;10018;51.230;7.860;2022-12-18T01:37:26;37.50;;;18.20;;
19733;SDS011;10018;51.230;7.860;2022-12-18T01:39:52;39.23;;;18.07;;
19733;SDS011;10018;51.230;7.860;2022-12-18T01:42:19;37.17;;;17.90;;
19733;SDS011;10018;51.230;7.860;2022-12-18T01:47:34;33.90;;;15.87;;
19733;SDS011;10018;51.230;7.860;2022-12-18T01:50:28;35.70;;;16.13;;
19733;SDS011;10018;51.230;7.860;2022-12-18T01:53:14;38.53;;;16.83;;
19733;SDS011;10018;51.230;7.860;2022-12-18T01:55:45;42.87;;;18.03;;
19733;SDS011;10018;51.230;7.860;2022-12-18T01:58:14;37.93;;;16.83;;
19733;SDS011;10018;51.230;7.860;2022-12-18T02:00:40;42.20;;;18.43;;
19733;SDS011;10018;51.230;7.860;2022-12-18T02:03:05;38.30;;;17.57;;
19733;SDS011;10018;51.230;7.860;2022-12-18T02:05:40;43.10;;;19.53;;
19733;SDS011;10018;51.230;7.860;2022-12-18T02:08:33;44.80;;;20.73;;
19733;SDS011;10018;51.230;7.860;2022-12-18T02:11:20;39.50;;;18.00;;
19733;SDS011;10018;51.230;7.860;2022-12-18T02:14:00;34.13;;;15.77;;
19733;SDS011;10018;51.230;7.860;2022-12-18T02:19:20;34.07;;;15.30;;
19733;SDS011;10018;51.230;7.860;2022-12-18T02:25:18;33.17;;;15.47;;
19733;SDS011;10018;51.230;7.860;2022-12-18T02:27:52;35.23;;;15.37;;
19733;SDS011;10018;51.230;7.860;2022-12-18T02:30:21;37.00;;;15.63;;
19733;SDS011;10018;51.230;7.860;2022-12-18T02:32:49;39.93;;;15.93;;
19733;SDS011;10018;51.230;7.860;2022-12-18T02:35:19;33.93;;;15.37;;
19733;SDS011;10018;51.230;7.860;2022-12-18T02:37:48;32.07;;;14.37;;
19733;SDS011;10018;51.230;7.860;2022-12-18T02:40:15;30.90;;;14.10;;
19733;SDS011;10018;51.230;7.860;2022-12-18T02:42:43;33.73;;;14.90;;
19733;SDS011;10018;51.230;7.860;2022-12-18T02:45:08;32.17;;;15.07;;
19733;SDS011;10018;51.230;7.860;2022-12-18T02:47:36;29.17;;;14.77;;
19733;SDS011;10018;51.230;7.860;2022-12-18T02:53:00;30.40;;;14.03;;
19733;SDS011;10018;51.230;7.860;2022-12-18T03:04:11;36.37;;;15.27;;
19733;SDS011;10018;51.230;7.860;2022-12-18T03:06:42;33.83;;;14.80;;
19733;SDS011;10018;51.230;7.860;2022-12-18T03:09:13;31.60;;;14.63;;
19733;SDS011;10018;51.230;7.860;2022-12-18T03:11:44;34.53;;;15.10;;
19733;SDS011;10018;51.230;7.860;2022-12-18T03:14:32;33.97;;;14.77;;
19733;SDS011;10018;51.230;7.860;2022-12-18T03:17:02;30.83;;;15.17;;
19733;SDS011;10018;51.230;7.860;2022-12-18T03:19:31;33.77;;;14.13;;
19733;SDS011;10018;51.230;7.860;2022-12-18T03:21:58;30.50;;;14.70;;
19733;SDS011;10018;51.230;7.860;2022-12-18T03:24:27;35.70;;;15.93;;
19733;SDS011;10018;51.230;7.860;2022-12-18T03:26:57;33.43;;;14.70;;
19733;SDS011;10018;51.230;7.860;2022-12-18T03:30:30;36.80;;;15.33;;
19733;SDS011;10018;51.230;7.860;2022-12-18T03:32:33;30.03;;;14.43;;
19733;SDS011;10018;51.230;7.860;2022-12-18T03:35:08;30.07;;;14.03;;
19733;SDS011;10018;51.230;7.860;2022-12-18T03:37:36;33.47;;;14.47;;
19733;SDS011;10018;51.230;7.860;2022-12-18T03:40:03;30.83;;;14.53;;
19733;SDS011;10018;51.230;7.860;2022-12-18T03:42:49;31.27;;;14.17;;
19733;SDS011;10018;51.230;7.860;2022-12-18T03:45:27;29.60;;;14.00;;
19733;SDS011;10018;51.230;7.860;2022-12-18T03:48:14;29.67;;;13.40;;
19733;SDS011;10018;51.230;7.860;2022-12-18T03:50:57;29.87;;;13.73;;
19733;SDS011;10018;51.230;7.860;2022-12-18T03:53:51;34.03;;;13.90;;
19733;SDS011;10018;51.230;7.860;2022-12-18T03:56:22;33.53;;;13.70;;
19733;SDS011;10018;51.230;7.860;2022-12-18T03:58:52;32.97;;;12.67;;
19733;SDS011;10018;51.230;7.860;2022-12-18T04:01:18;26.87;;;11.77;;
19733;SDS011;10018;51.230;7.860;2022-12-18T04:03:48;25.67;;;12.17;;
19733;SDS011;10018;51.230;7.860;2022-12-18T04:06:14;27.33;;;12.23;;
19733;SDS011;10018;51.230;7.860;2022-12-18T04:08:41;27.50;;;12.23;;
19733;SDS011;10018;51.230;7.860;2022-12-18T04:11:07;27.33;;;12.10;;
19733;SDS011;10018;51.230;7.860;2022-12-18T04:13:36;24.90;;;11.80;;
19733;SDS011;10018;51.230;7.860;2022-12-18T04:16:03;27.20;;;12.13;;
19733;SDS011;10018;51.230;7.860;2022-12-18T04:18:29;29.63;;;13.00;;
19733;SDS011;10018;51.230;7.860;2022-12-18T04:20:55;33.43;;;13.93;;
19733;SDS011;10018;51.230;7.860;2022-12-18T04:23:20;28.90;;;14.20;;
19733;SDS011;10018;51.230;7.860;2022-12-18T04:25:46;32.20;;;14.57;;
19733;SDS011;10018;51.230;7.860;2022-12-18T04:28:12;29.23;;;14.00;;
19733;SDS011;10018;51.230;7.860;2022-12-18T04:30:38;26.70;;;12.37;;
19733;SDS011;10018;51.230;7.860;2022-12-18T04:33:03;27.00;;;12.37;;
19733;SDS011;10018;51.230;7.860;2022-12-18T04:35:32;27.27;;;12.70;;
19733;SDS011;10018;51.230;7.860;2022-12-18T04:37:58;25.70;;;12.20;;
19733;SDS011;10018;51.230;7.860;2022-12-18T04:40:23;25.73;;;10.63;;
19733;SDS011;10018;51.230;7.860;2022-12-18T04:42:49;25.90;;;11.63;;
19733;SDS011;10018;51.230;7.860;2022-12-18T04:45:14;24.73;;;11.33;;
19733;SDS011;10018;51.230;7.860;2022-12-18T04:47:40;24.63;;;11.73;;
19733;SDS011;10018;51.230;7.860;2022-12-18T04:50:05;26.17;;;11.30;;
19733;SDS011;10018;51.230;7.860;2022-12-18T04:52:31;20.33;;;9.83;;
19733;SDS011;10018;51.230;7.860;2022-12-18T04:54:57;20.57;;;9.20;;
19733;SDS011;10018;51.230;7.860;2022-12-18T04:57:22;20.87;;;9.83;;
19733;SDS011;10018;51.230;7.860;2022-12-18T04:59:48;23.33;;;10.57;;
19733;SDS011;10018;51.230;7.860;2022-12-18T05:02:13;26.70;;;11.90;;
19733;SDS011;10018;51.230;7.860;2022-12-18T05:04:39;26.97;;;12.73;;
19733;SDS011;10018;51.230;7.860;2022-12-18T05:07:04;27.83;;;11.53;;
19733;SDS011;10018;51.230;7.860;2022-12-18T05:09:30;25.87;;;11.97;;
19733;SDS011;10018;51.230;7.860;2022-12-18T05:11:55;26.13;;;11.07;;
19733;SDS011;10018;51.230;7.860;2022-12-18T05:14:21;24.83;;;11.37;;
19733;SDS011;10018;51.230;7.860;2022-12-18T05:16:47;25.63;;;12.37;;
19733;SDS011;10018;51.230;7.860;2022-12-18T05:19:12;30.83;;;13.87;;
19733;SDS011;10018;51.230;7.860;2022-12-18T05:21:38;31.03;;;12.80;;
19733;SDS011;10018;51.230;7.860;2022-12-18T05:24:03;28.00;;;13.30;;
19733;SDS011;10018;51.230;7.860;2022-12-18T05:26:29;26.60;;;12.67;;
19733;SDS011;10018;51.230;7.860;2022-12-18T05:28:56;29.07;;;12.63;;
19733;SDS011;10018;51.230;7.860;2022-12-18T05:31:22;26.20;;;11.43;;
19733;SDS011;10018;51.230;7.860;2022-12-18T05:33:47;30.13;;;12.60;;
19733;SDS011;10018;51.230;7.860;2022-12-18T05:36:13;29.33;;;12.07;;
19733;SDS011;10018;51.230;7.860;2022-12-18T05:38:38;26.90;;;11.63;;
19733;SDS011;10018;51.230;7.860;2022-12-18T05:41:05;24.23;;;11.93;;
19733;SDS011;10018;51.230;7.860;2022-12-18T05:43:33;29.83;;;12.77;;
19733;SDS011;10018;51.230;7.860;2022-12-18T05:46:03;23.60;;;12.10;;
19733;SDS011;10018;51.230;7.860;2022-12-18T05:48:33;26.07;;;11.77;;
19733;SDS011;10018;51.230;7.860;2022-12-18T05:51:32;25.17;;;11.90;;
19733;SDS011;10018;51.230;7.860;2022-12-18T05:53:50;24.10;;;11.30;;
19733;SDS011;10018;51.230;7.860;2022-12-18T05:56:17;24.80;;;11.23;;
19733;SDS011;10018;51.230;7.860;2022-12-18T05:58:45;25.37;;;11.07;;
19733;SDS011;10018;51.230;7.860;2022-12-18T06:01:12;27.70;;;12.27;;
19733;SDS011;10018;51.230;7.860;2022-12-18T06:03:40;21.73;;;10.90;;
19733;SDS011;10018;51.230;7.860;2022-12-18T06:06:12;24.63;;;11.43;;
19733;SDS011;10018;51.230;7.860;2022-12-18T06:08:43;23.97;;;11.60;;
19733;SDS011;10018;51.230;7.860;2022-12-18T06:11:08;26.03;;;11.83;;
19733;SDS011;10018;51.230;7.860;2022-12-18T06:13:34;24.00;;;12.17;;
19733;SDS011;10018;51.230;7.860;2022-12-18T06:16:01;26.07;;;12.07;;
19733;SDS011;10018;51.230;7.860;2022-12-18T06:18:30;33.43;;;12.83;;
19733;SDS011;10018;51.230;7.860;2022-12-18T06:20:57;26.60;;;11.13;;
19733;SDS011;10018;51.230;7.860;2022-12-18T06:23:24;26.90;;;11.67;;
19733;SDS011;10018;51.230;7.860;2022-12-18T06:25:50;27.60;;;11.73;;
19733;SDS011;10018;51.230;7.860;2022-12-18T06:28:16;26.00;;;11.97;;
19733;SDS011;10018;51.230;7.860;2022-12-18T06:30:45;26.93;;;12.53;;
19733;SDS011;10018;51.230;7.860;2022-12-18T06:33:11;28.33;;;12.67;;
19733;SDS011;10018;51.230;7.860;2022-12-18T06:35:37;27.50;;;12.30;;
19733;SDS011;10018;51.230;7.860;2022-12-18T06:38:02;25.40;;;12.10;;
19733;SDS011;10018;51.230;7.860;2022-12-18T06:40:28;28.53;;;12.27;;
19733;SDS011;10018;51.230;7.860;2022-12-18T06:42:54;24.47;;;11.70;;
19733;SDS011;10018;51.230;7.860;2022-12-18T06:45:20;24.80;;;11.20;;
19733;SDS011;10018;51.230;7.860;2022-12-18T06:47:45;23.83;;;11.90;;
19733;SDS011;10018;51.230;7.860;2022-12-18T06:50:11;24.57;;;10.40;;
19733;SDS011;10018;51.230;7.860;2022-12-18T06:52:37;27.47;;;10.97;;
19733;SDS011;10018;51.230;7.860;2022-12-18T06:55:05;24.60;;;10.70;;
19733;SDS011;10018;51.230;7.860;2022-12-18T06:57:34;25.13;;;11.13;;
19733;SDS011;10018;51.230;7.860;2022-12-18T06:59:59;20.57;;;9.70;;
19733;SDS011;10018;51.230;7.860;2022-12-18T07:02:25;22.23;;;9.57;;
19733;SDS011;10018;51.230;7.860;2022-12-18T07:04:50;19.97;;;10.03;;
19733;SDS011;10018;51.230;7.860;2022-12-18T07:07:16;22.17;;;9.70;;
19733;SDS011;10018;51.230;7.860;2022-12-18T07:09:42;22.37;;;10.30;;
19733;SDS011;10018;51.230;7.860;2022-12-18T07:12:08;23.37;;;10.23;;
19733;SDS011;10018;51.230;7.860;2022-12-18T07:14:33;24.70;;;11.47;;
19733;SDS011;10018;51.230;7.860;2022-12-18T07:16:59;24.00;;;11.90;;
19733;SDS011;10018;51.230;7.860;2022-12-18T07:19:24;27.70;;;11.87;;
19733;SDS011;10018;51.230;7.860;2022-12-18T07:21:50;26.57;;;11.30;;
19733;SDS011;10018;51.230;7.860;2022-12-18T07:24:16;26.27;;;11.87;;
19733;SDS011;10018;51.230;7.860;2022-12-18T07:26:41;22.33;;;10.20;;
19733;SDS011;10018;51.230;7.860;2022-12-18T07:29:07;24.50;;;11.03;;
19733;SDS011;10018;51.230;7.860;2022-12-18T07:31:33;25.27;;;11.03;;
19733;SDS011;10018;51.230;7.860;2022-12-18T07:33:58;27.27;;;11.07;;
19733;SDS011;10018;51.230;7.860;2022-12-18T07:36:24;29.97;;;13.57;;
19733;SDS011;10018;51.230;7.860;2022-12-18T07:38:50;31.73;;;13.87;;
19733;SDS011;10018;51.230;7.860;2022-12-18T07:41:17;30.33;;;14.27;;
19733;SDS011;10018;51.230;7.860;2022-12-18T07:43:43;25.13;;;11.70;;
19733;SDS011;10018;51.230;7.860;2022-12-18T07:46:09;28.83;;;13.57;;
19733;SDS011;10018;51.230;7.860;2022-12-18T07:48:38;29.60;;;12.67;;
19733;SDS011;10018;51.230;7.860;2022-12-18T07:51:05;27.20;;;12.37;;
19733;SDS011;10018;51.230;7.860;2022-12-18T07:53:32;47.07;;;21.13;;
19733;SDS011;10018;51.230;7.860;2022-12-18T07:56:00;154.23;;;58.00;;
19733;SDS011;10018;51.230;7.860;2022-12-18T07:58:28;157.33;;;70.17;;
19733;SDS011;10018;51.230;7.860;2022-12-18T08:00:54;56.80;;;28.33;;
19733;SDS011;10018;51.230;7.860;2022-12-18T08:03:30;47.67;;;21.70;;
19733;SDS011;10018;51.230;7.860;2022-12-18T08:05:59;31.50;;;15.13;;
19733;SDS011;10018;51.230;7.860;2022-12-18T08:08:26;32.50;;;15.97;;
19733;SDS011;10018;51.230;7.860;2022-12-18T08:10:52;39.17;;;18.23;;
19733;SDS011;10018;51.230;7.860;2022-12-18T08:13:17;60.40;;;29.93;;
19733;SDS011;10018;51.230;7.860;2022-12-18T08:15:43;128.40;;;55.53;;
19733;SDS011;10018;51.230;7.860;2022-12-18T08:18:08;70.53;;;28.33;;
19733;SDS011;10018;51.230;7.860;2022-12-18T08:20:34;43.03;;;20.47;;
19733;SDS011;10018;51.230;7.860;2022-12-18T08:22:59;51.63;;;25.87;;
19733;SDS011;10018;51.230;7.860;2022-12-18T08:25:25;44.23;;;20.90;;
19733;SDS011;10018;51.230;7.860;2022-12-18T08:27:50;64.13;;;32.40;;
19733;SDS011;10018;51.230;7.860;2022-12-18T08:30:16;36.43;;;16.27;;
19733;SDS011;10018;51.230;7.860;2022-12-18T08:32:41;40.57;;;19.07;;
19733;SDS011;10018;51.230;7.860;2022-12-18T08:35:07;41.43;;;19.17;;
19733;SDS011;10018;51.230;7.860;2022-12-18T08:37:33;41.00;;;20.40;;
19733;SDS011;10018;51.230;7.860;2022-12-18T08:39:59;38.80;;;17.60;;
19733;SDS011;10018;51.230;7.860;2022-12-18T08:42:25;34.07;;;17.03;;
19733;SDS011;10018;51.230;7.860;2022-12-18T08:45:09;41.20;;;24.30;;
19733;SDS011;10018;51.230;7.860;2022-12-18T08:47:34;30.13;;;15.03;;
19733;SDS011;10018;51.230;7.860;2022-12-18T08:50:00;49.27;;;27.13;;
19733;SDS011;10018;51.230;7.860;2022-12-18T08:52:25;41.47;;;18.23;;
19733;SDS011;10018;51.230;7.860;2022-12-18T08:54:51;62.37;;;32.47;;
19733;SDS011;10018;51.230;7.860;2022-12-18T08:57:16;39.50;;;22.17;;
19733;SDS011;10018;51.230;7.860;2022-12-18T08:59:42;33.37;;;16.50;;
19733;SDS011;10018;51.230;7.860;2022-12-18T09:02:09;36.23;;;18.17;;
19733;SDS011;10018;51.230;7.860;2022-12-18T09:04:35;27.57;;;15.07;;
19733;SDS011;10018;51.230;7.860;2022-12-18T09:07:01;39.90;;;22.70;;
19733;SDS011;10018;51.230;7.860;2022-12-18T09:09:27;45.03;;;27.10;;
19733;SDS011;10018;51.230;7.860;2022-12-18T09:11:52;38.57;;;20.37;;
19733;SDS011;10018;51.230;7.860;2022-12-18T09:14:18;38.67;;;19.43;;
19733;SDS011;10018;51.230;7.860;2022-12-18T09:16:43;32.93;;;19.13;;
19733;SDS011;10018;51.230;7.860;2022-12-18T09:19:09;28.17;;;16.00;;
19733;SDS011;10018;51.230;7.860;2022-12-18T09:21:35;28.87;;;14.23;;
19733;SDS011;10018;51.230;7.860;2022-12-18T09:24:00;32.00;;;17.67;;
19733;SDS011;10018;51.230;7.860;2022-12-18T09:26:26;34.77;;;19.50;;
19733;SDS011;10018;51.230;7.860;2022-12-18T09:28:52;34.37;;;18.37;;
19733;SDS011;10018;51.230;7.860;2022-12-18T09:31:19;27.70;;;14.17;;
19733;SDS011;10018;51.230;7.860;2022-12-18T09:33:46;24.87;;;12.17;;
19733;SDS011;10018;51.230;7.860;2022-12-18T09:36:12;28.10;;;13.93;;
19733;SDS011;10018;51.230;7.860;2022-12-18T09:38:40;24.77;;;13.13;;
19733;SDS011;10018;51.230;7.860;2022-12-18T09:41:16;30.77;;;15.33;;
19733;SDS011;10018;51.230;7.860;2022-12-18T09:44:25;35.90;;;17.43;;
19733;SDS011;10018;51.230;7.860;2022-12-18T09:46:53;112.90;;;44.57;;
19733;SDS011;10018;51.230;7.860;2022-12-18T09:49:25;42.40;;;20.67;;
19733;SDS011;10018;51.230;7.860;2022-12-18T09:51:58;37.90;;;21.60;;
19733;SDS011;10018;51.230;7.860;2022-12-18T09:54:38;28.40;;;14.67;;
19733;SDS011;10018;51.230;7.860;2022-12-18T09:57:22;32.87;;;17.37;;
19733;SDS011;10018;51.230;7.860;2022-12-18T09:59:59;27.97;;;15.37;;
19733;SDS011;10018;51.230;7.860;2022-12-18T10:02:32;25.20;;;12.73;;
19733;SDS011;10018;51.230;7.860;2022-12-18T10:05:02;30.53;;;14.90;;
19733;SDS011;10018;51.230;7.860;2022-12-18T10:10:19;23.37;;;13.13;;
19733;SDS011;10018;51.230;7.860;2022-12-18T10:13:09;25.07;;;14.83;;
19733;SDS011;10018;51.230;7.860;2022-12-18T10:18:31;18.83;;;9.80;;
19733;SDS011;10018;51.230;7.860;2022-12-18T10:21:19;20.27;;;9.77;;
19733;SDS011;10018;51.230;7.860;2022-12-18T10:23:54;15.73;;;8.10;;
19733;SDS011;10018;51.230;7.860;2022-12-18T10:26:36;20.30;;;11.13;;
19733;SDS011;10018;51.230;7.860;2022-12-18T10:29:04;19.37;;;10.63;;
19733;SDS011;10018;51.230;7.860;2022-12-18T10:31:35;21.43;;;10.90;;
19733;SDS011;10018;51.230;7.860;2022-12-18T10:34:01;26.00;;;15.40;;
19733;SDS011;10018;51.230;7.860;2022-12-18T10:36:26;22.33;;;11.70;;
19733;SDS011;10018;51.230;7.860;2022-12-18T10:38:52;19.20;;;9.90;;
19733;SDS011;10018;51.230;7.860;2022-12-18T10:43:48;12.27;;;6.20;;
19733;SDS011;10018;51.230;7.860;2022-12-18T10:46:45;14.13;;;7.17;;
19733;SDS011;10018;51.230;7.860;2022-12-18T10:49:25;15.23;;;6.40;;
19733;SDS011;10018;51.230;7.860;2022-12-18T10:52:14;14.90;;;7.07;;
19733;SDS011;10018;51.230;7.860;2022-12-18T10:54:45;16.30;;;7.43;;
19733;SDS011;10018;51.230;7.860;2022-12-18T10:57:29;16.37;;;8.13;;
19733;SDS011;10018;51.230;7.860;2022-12-18T10:59:56;11.90;;;6.53;;
19733;SDS011;10018;51.230;7.860;2022-12-18T11:02:34;12.40;;;6.63;;
19733;SDS011;10018;51.230;7.860;2022-12-18T11:05:00;12.80;;;5.77;;
19733;SDS011;10018;51.230;7.860;2022-12-18T11:07:30;53.30;;;24.87;;
19733;SDS011;10018;51.230;7.860;2022-12-18T11:10:15;267.53;;;100.00;;
19733;SDS011;10018;51.230;7.860;2022-12-18T11:12:42;167.33;;;63.87;;
19733;SDS011;10018;51.230;7.860;2022-12-18T11:15:15;39.47;;;19.63;;
19733;SDS011;10018;51.230;7.860;2022-12-18T11:17:44;34.00;;;19.60;;
19733;SDS011;10018;51.230;7.860;2022-12-18T11:23:10;15.67;;;9.33;;
19733;SDS011;10018;51.230;7.860;2022-12-18T11:25:37;16.73;;;9.60;;
19733;SDS011;10018;51.230;7.860;2022-12-18T11:31:11;14.93;;;7.10;;
19733;SDS011;10018;51.230;7.860;2022-12-18T11:33:37;11.70;;;6.20;;
19733;SDS011;10018;51.230;7.860;2022-12-18T11:36:06;10.33;;;5.10;;
19733;SDS011;10018;51.230;7.860;2022-12-18T11:38:37;10.53;;;5.50;;
19733;SDS011;10018;51.230;7.860;2022-12-18T11:44:22;24.20;;;14.87;;
19733;SDS011;10018;51.230;7.860;2022-12-18T11:46:53;11.73;;;6.60;;
19733;SDS011;10018;51.230;7.860;2022-12-18T11:49:26;11.43;;;5.17;;
19733;SDS011;10018;51.230;7.860;2022-12-18T11:52:15;10.80;;;5.13;;
19733;SDS011;10018;51.230;7.860;2022-12-18T11:54:41;16.20;;;10.30;;
19733;SDS011;10018;51.230;7.860;2022-12-18T11:57:32;9.60;;;5.30;;
19733;SDS011;10018;51.230;7.860;2022-12-18T11:59:59;10.87;;;5.70;;
19733;SDS011;10018;51.230;7.860;2022-12-18T12:08:26;12.93;;;5.37;;
19733;SDS011;10018;51.230;7.860;2022-12-18T12:19:29;14.07;;;8.13;;
19733;SDS011;10018;51.230;7.860;2022-12-18T12:27:30;9.47;;;5.63;;
19733;SDS011;10018;51.230;7.860;2022-12-18T12:38:21;31.00;;;15.57;;
19733;SDS011;10018;51.230;7.860;2022-12-18T12:40:56;13.77;;;7.17;;
19733;SDS011;10018;51.230;7.860;2022-12-18T12:43:59;18.07;;;8.27;;
19733;SDS011;10018;51.230;7.860;2022-12-18T12:46:19;10.07;;;5.30;;
19733;SDS011;10018;51.230;7.860;2022-12-18T12:48:58;154.47;;;64.77;;
19733;SDS011;10018;51.230;7.860;2022-12-18T12:51:28;103.77;;;42.83;;
19733;SDS011;10018;51.230;7.860;2022-12-18T12:53:58;302.40;;;127.43;;
19733;SDS011;10018;51.230;7.860;2022-12-18T12:56:29;221.60;;;110.37;;
19733;SDS011;10018;51.230;7.860;2022-12-18T12:59:15;200.97;;;106.53;;
19733;SDS011;10018;51.230;7.860;2022-12-18T13:01:59;21.43;;;12.77;;
19733;SDS011;10018;51.230;7.860;2022-12-18T13:04:50;74.03;;;40.83;;
19733;SDS011;10018;51.230;7.860;2022-12-18T13:07:30;54.20;;;33.13;;
19733;SDS011;10018;51.230;7.860;2022-12-18T13:10:13;16.17;;;9.23;;
19733;SDS011;10018;51.230;7.860;2022-12-18T13:13:05;19.87;;;11.17;;
19733;SDS011;10018;51.230;7.860;2022-12-18T13:15:39;15.43;;;8.77;;
19733;SDS011;10018;51.230;7.860;2022-12-18T13:25:50;15.30;;;8.50;;
19733;SDS011;10018;51.230;7.860;2022-12-18T13:30:58;15.73;;;8.30;;
19733;SDS011;10018;51.230;7.860;2022-12-18T13:38:34;36.80;;;23.20;;
19733;SDS011;10018;51.230;7.860;2022-12-18T13:41:02;53.60;;;38.33;;
19733;SDS011;10018;51.230;7.860;2022-12-18T13:43:48;22.77;;;14.20;;
19733;SDS011;10018;51.230;7.860;2022-12-18T13:51:49;17.33;;;9.63;;
19733;SDS011;10018;51.230;7.860;2022-12-18T13:54:35;15.30;;;8.33;;
19733;SDS011;10018;51.230;7.860;2022-12-18T13:57:04;17.50;;;10.43;;
19733;SDS011;10018;51.230;7.860;2022-12-18T13:59:37;17.20;;;10.17;;
19733;SDS011;10018;51.230;7.860;2022-12-18T14:04:39;18.73;;;9.80;;
19733;SDS011;10018;51.230;7.860;2022-12-18T14:07:15;23.30;;;12.17;;
19733;SDS011;10018;51.230;7.860;2022-12-18T14:09:44;19.83;;;9.23;;
19733;SDS011;10018;51.230;7.860;2022-12-18T14:12:17;18.10;;;9.73;;
19733;SDS011;10018;51.230;7.860;2022-12-18T14:15:05;16.90;;;9.23;;
19733;SDS011;10018;51.230;7.860;2022-12-18T14:17:45;25.43;;;12.53;;
19733;SDS011;10018;51.230;7.860;2022-12-18T14:20:15;32.13;;;20.03;;
19733;SDS011;10018;51.230;7.860;2022-12-18T14:22:45;20.47;;;10.77;;
19733;SDS011;10018;51.230;7.860;2022-12-18T14:27:37;28.80;;;17.90;;
19733;SDS011;10018;51.230;7.860;2022-12-18T14:35:33;25.20;;;15.50;;
19733;SDS011;10018;51.230;7.860;2022-12-18T14:40:41;20.90;;;11.60;;
19733;SDS011;10018;51.230;7.860;2022-12-18T14:43:11;19.77;;;11.10;;
19733;SDS011;10018;51.230;7.860;2022-12-18T14:45:38;25.47;;;15.83;;
19733;SDS011;10018;51.230;7.860;2022-12-18T14:48:17;24.40;;;12.67;;
19733;SDS011;10018;51.230;7.860;2022-12-18T14:50:54;29.17;;;16.63;;
19733;SDS011;10018;51.230;7.860;2022-12-18T14:53:39;28.43;;;15.00;;
19733;SDS011;10018;51.230;7.860;2022-12-18T14:56:20;31.93;;;17.80;;
19733;SDS011;10018;51.230;7.860;2022-12-18T15:01:27;26.20;;;13.87;;
19733;SDS011;10018;51.230;7.860;2022-12-18T15:04:02;27.83;;;15.90;;
19733;SDS011;10018;51.230;7.860;2022-12-18T15:06:33;33.00;;;18.90;;
19733;SDS011;10018;51.230;7.860;2022-12-18T15:09:02;30.07;;;17.73;;
19733;SDS011;10018;51.230;7.860;2022-12-18T15:11:34;28.67;;;16.23;;
19733;SDS011;10018;51.230;7.860;2022-12-18T15:16:56;28.23;;;16.60;;
19733;SDS011;10018;51.230;7.860;2022-12-18T15:19:25;27.23;;;14.70;;
19733;SDS011;10018;51.230;7.860;2022-12-18T15:21:59;28.37;;;16.53;;
19733;SDS011;10018;51.230;7.860;2022-12-18T15:24:26;32.57;;;17.50;;
19733;SDS011;10018;51.230;7.860;2022-12-18T15:26:55;33.23;;;17.20;;
19733;SDS011;10018;51.230;7.860;2022-12-18T15:29:21;30.17;;;15.50;;
19733;SDS011;10018;51.230;7.860;2022-12-18T15:32:00;25.83;;;14.10;;
19733;SDS011;10018;51.230;7.860;2022-12-18T15:34:30;27.77;;;14.40;;
19733;SDS011;10018;51.230;7.860;2022-12-18T15:36:57;27.57;;;15.43;;
19733;SDS011;10018;51.230;7.860;2022-12-18T15:39:22;55.13;;;31.17;;
19733;SDS011;10018;51.230;7.860;2022-12-18T15:41:49;43.03;;;25.33;;
19733;SDS011;10018;51.230;7.860;2022-12-18T15:44:37;33.83;;;20.47;;
19733;SDS011;10018;51.230;7.860;2022-12-18T15:47:04;26.87;;;14.53;;
19733;SDS011;10018;51.230;7.860;2022-12-18T15:49:35;47.10;;;31.17;;
19733;SDS011;10018;51.230;7.860;2022-12-18T15:52:01;42.60;;;26.47;;
19733;SDS011;10018;51.230;7.860;2022-12-18T15:54:27;40.90;;;24.00;;
19733;SDS011;10018;51.230;7.860;2022-12-18T15:57:12;31.60;;;16.47;;
19733;SDS011;10018;51.230;7.860;2022-12-18T15:59:47;43.13;;;24.90;;
19733;SDS011;10018;51.230;7.860;2022-12-18T16:02:14;42.93;;;25.97;;
19733;SDS011;10018;51.230;7.860;2022-12-18T16:04:41;30.93;;;16.50;;
19733;SDS011;10018;51.230;7.860;2022-12-18T16:07:07;30.60;;;16.73;;
19733;SDS011;10018;51.230;7.860;2022-12-18T16:09:33;39.57;;;25.03;;
19733;SDS011;10018;51.230;7.860;2022-12-18T16:11:59;29.50;;;16.53;;
19733;SDS011;10018;51.230;7.860;2022-12-18T16:14:25;26.73;;;15.70;;
19733;SDS011;10018;51.230;7.860;2022-12-18T16:16:54;31.77;;;17.37;;
19733;SDS011;10018;51.230;7.860;2022-12-18T16:19:24;28.73;;;15.67;;
19733;SDS011;10018;51.230;7.860;2022-12-18T16:21:52;30.97;;;16.30;;
19733;SDS011;10018;51.230;7.860;2022-12-18T16:24:21;119.80;;;54.90;;
19733;SDS011;10018;51.230;7.860;2022-12-18T16:26:48;58.47;;;33.70;;